createdAt,value
2019-04-24T00:00:04.163Z,35.90
2019-04-24T00:02:44.059Z,37.43
2019-04-24T00:05:23.191Z,36.17
2019-04-24T00:07:34.830Z,36.90
2019-04-24T00:10:17.457Z,37.80
2019-04-24T00:13:03.180Z,38.57
2019-04-24T00:15:37.503Z,35.10
2019-04-24T00:18:18.428Z,35.90
2019-04-24T00:20:38.336Z,36.80
2019-04-24T00:23:09.576Z,35.37
2019-04-24T00:25:34.708Z,35.27
2019-04-24T00:28:20.550Z,35.20
2019-04-24T00:30:44.048Z,34.97
2019-04-24T00:36:13.262Z,35.83
2019-04-24T00:38:20.868Z,35.63
2019-04-24T00:40:58.231Z,36.30
2019-04-24T00:43:31.992Z,35.30
2019-04-24T00:51:07.913Z,37.00
2019-04-24T00:56:08.067Z,38.20
2019-04-24T00:58:24.465Z,38.80
2019-04-24T01:01:25.415Z,35.67
2019-04-24T01:04:15.121Z,35.53
2019-04-24T01:06:33.921Z,37.63
2019-04-24T01:09:17.891Z,37.50
2019-04-24T01:11:45.468Z,39.57
2019-04-24T01:14:12.539Z,38.90
2019-04-24T01:16:51.765Z,39.07
2019-04-24T01:22:09.927Z,38.47
2019-04-24T01:29:21.071Z,41.70
2019-04-24T01:32:14.533Z,37.33
2019-04-24T01:34:51.268Z,41.20
2019-04-24T01:37:24.181Z,40.07
2019-04-24T01:40:02.283Z,39.90
2019-04-24T01:45:16.771Z,42.50
2019-04-24T01:47:37.565Z,41.43
2019-04-24T01:50:10.412Z,39.93
2019-04-24T01:55:18.423Z,40.07
2019-04-24T01:57:41.375Z,42.13
2019-04-24T02:00:13.979Z,41.97
2019-04-24T02:05:16.840Z,38.70
2019-04-24T02:08:06.582Z,41.33
2019-04-24T02:18:20.501Z,41.37
2019-04-24T02:20:42.820Z,44.90
2019-04-24T02:31:09.251Z,42.90
2019-04-24T02:36:34.173Z,43.03
2019-04-24T02:44:42.617Z,42.20
2019-04-24T02:46:41.081Z,41.70
2019-04-24T02:49:36.191Z,46.40
2019-04-24T02:51:44.641Z,47.13
2019-04-24T02:54:36.354Z,44.97
2019-04-24T02:56:55.891Z,41.50
2019-04-24T02:59:26.598Z,43.83
2019-04-24T03:02:03.033Z,42.10
2019-04-24T03:15:18.347Z,41.67
2019-04-24T03:17:38.382Z,41.37
2019-04-24T03:27:53.644Z,41.90
2019-04-24T03:33:08.345Z,36.47
2019-04-24T03:43:11.921Z,39.13
2019-04-24T03:48:22.747Z,38.37
2019-04-24T04:01:32.156Z,36.90
2019-04-24T04:04:04.165Z,35.17
2019-04-24T04:06:46.440Z,36.40
2019-04-24T04:11:38.959Z,35.73
2019-04-24T04:14:01.150Z,37.70
2019-04-24T04:19:12.141Z,35.50
2019-04-24T04:21:35.255Z,35.70
2019-04-24T04:24:19.194Z,37.10
2019-04-24T04:26:53.439Z,34.07
2019-04-24T04:31:42.275Z,33.37
2019-04-24T04:36:58.905Z,34.20
2019-04-24T04:39:31.232Z,34.67
2019-04-24T04:44:37.345Z,34.93
2019-04-24T04:57:28.885Z,34.97
2019-04-24T04:59:58.314Z,34.30
2019-04-24T05:02:27.897Z,34.60
2019-04-24T05:07:34.149Z,35.27
2019-04-24T05:09:57.631Z,33.40
2019-04-24T05:12:29.530Z,35.87
2019-04-24T05:17:50.512Z,35.40
2019-04-24T05:19:53.357Z,30.73
2019-04-24T05:25:06.639Z,34.40
2019-04-24T05:27:34.836Z,35.50
2019-04-24T05:30:08.543Z,39.60
2019-04-24T05:33:17.267Z,36.43
2019-04-24T05:35:40.369Z,34.67
2019-04-24T05:38:32.120Z,38.57
2019-04-24T05:40:46.748Z,36.90
2019-04-24T05:43:37.841Z,34.03
2019-04-24T05:45:59.504Z,34.30
2019-04-24T05:48:42.030Z,35.20
2019-04-24T05:53:42.655Z,35.23
2019-04-24T05:58:58.483Z,36.37
2019-04-24T06:06:56.481Z,34.00
2019-04-24T06:09:24.269Z,35.53
2019-04-24T06:12:00.281Z,34.67
2019-04-24T06:17:22.171Z,34.40
2019-04-24T06:20:01.235Z,34.20
2019-04-24T06:22:25.584Z,34.90
2019-04-24T06:25:21.997Z,34.57
2019-04-24T06:37:45.903Z,32.20
2019-04-24T06:40:27.188Z,32.80
2019-04-24T06:42:58.350Z,31.50
2019-04-24T06:48:06.991Z,35.47
2019-04-24T06:50:49.014Z,35.20
2019-04-24T06:55:40.102Z,35.13
2019-04-24T07:03:06.326Z,34.53
2019-04-24T07:05:44.697Z,32.40
2019-04-24T07:08:23.759Z,32.67
2019-04-24T07:11:10.954Z,31.30
2019-04-24T07:13:56.885Z,34.10
2019-04-24T07:21:31.956Z,32.33
2019-04-24T07:24:03.492Z,30.30
2019-04-24T07:26:19.152Z,31.23
2019-04-24T07:29:07.418Z,29.57
2019-04-24T07:31:46.274Z,36.57
2019-04-24T07:34:30.024Z,29.50
2019-04-24T07:37:18.631Z,31.20
2019-04-24T07:44:38.825Z,29.37
2019-04-24T07:47:16.354Z,31.70
2019-04-24T07:49:46.045Z,34.27
2019-04-24T07:52:34.563Z,27.50
2019-04-24T07:54:59.593Z,29.13
2019-04-24T07:57:20.546Z,30.00
2019-04-24T08:00:03.543Z,30.73
2019-04-24T08:05:03.485Z,29.90
2019-04-24T08:07:46.180Z,29.73
2019-04-24T08:18:03.199Z,35.00
2019-04-24T08:20:42.769Z,28.57
2019-04-24T08:22:55.836Z,33.77
2019-04-24T08:28:18.414Z,48.33
2019-04-24T08:33:18.728Z,30.83
2019-04-24T08:35:57.713Z,29.80
2019-04-24T08:38:18.911Z,29.40
2019-04-24T08:43:35.203Z,26.80
2019-04-24T08:46:18.912Z,26.30
2019-04-24T08:51:42.456Z,28.67
2019-04-24T08:59:07.914Z,26.80
2019-04-24T09:01:48.766Z,26.77
2019-04-24T09:04:16.668Z,26.57
2019-04-24T09:06:52.508Z,25.77
2019-04-24T09:09:37.846Z,28.70
2019-04-24T09:11:50.892Z,26.33
2019-04-24T09:19:23.091Z,28.83
2019-04-24T09:22:12.055Z,24.57
2019-04-24T09:37:55.115Z,25.40
2019-04-24T09:40:54.793Z,24.03
2019-04-24T09:45:47.153Z,21.93
2019-04-24T09:53:34.137Z,19.80
2019-04-24T09:55:48.658Z,18.73
2019-04-24T09:58:37.936Z,18.67
2019-04-24T10:04:03.069Z,17.40
2019-04-24T10:06:56.085Z,17.60
2019-04-24T10:08:46.801Z,14.73
2019-04-24T10:16:55.526Z,15.80
2019-04-24T10:19:22.993Z,14.27
2019-04-24T10:24:42.396Z,14.77
2019-04-24T10:27:03.785Z,13.90
2019-04-24T10:29:58.273Z,14.10
2019-04-24T10:32:41.283Z,15.40
2019-04-24T10:35:08.138Z,15.43
2019-04-24T10:40:26.946Z,14.83
2019-04-24T10:42:57.396Z,15.73
2019-04-24T10:45:28.754Z,14.07
2019-04-24T10:48:15.154Z,14.97
2019-04-24T10:50:49.049Z,15.30
2019-04-24T10:58:22.453Z,13.63
2019-04-24T11:01:10.459Z,14.97
2019-04-24T11:03:50.454Z,14.23
2019-04-24T11:06:05.636Z,13.30
2019-04-24T11:11:16.367Z,13.63
2019-04-24T11:14:10.753Z,12.13
2019-04-24T11:17:07.552Z,12.87
2019-04-24T11:22:25.410Z,13.60
2019-04-24T11:25:05.216Z,11.57
2019-04-24T11:27:30.184Z,11.57
2019-04-24T11:32:44.778Z,11.90
2019-04-24T11:35:22.242Z,11.07
2019-04-24T11:43:04.818Z,12.07
2019-04-24T11:45:49.236Z,10.57
2019-04-24T11:53:38.338Z,10.17
2019-04-24T11:56:04.458Z,10.50
2019-04-24T12:01:01.851Z,10.33
2019-04-24T12:04:15.001Z,10.13
2019-04-24T12:06:35.882Z,10.70
2019-04-24T12:08:59.499Z,10.20
2019-04-24T12:14:07.517Z,6.90
2019-04-24T12:19:26.143Z,4.77
2019-04-24T12:22:03.622Z,5.80
2019-04-24T12:24:33.031Z,6.27
2019-04-24T12:26:59.127Z,4.77
2019-04-24T12:32:25.848Z,5.93
2019-04-24T12:34:59.040Z,4.40
2019-04-24T12:37:39.063Z,5.47
2019-04-24T12:40:19.297Z,6.40
2019-04-24T12:42:41.830Z,5.37
2019-04-24T12:45:24.598Z,5.10
2019-04-24T12:47:46.298Z,5.00
2019-04-24T12:50:13.729Z,4.87
2019-04-24T12:52:58.214Z,5.60
2019-04-24T12:55:30.921Z,5.33
2019-04-24T13:03:40.191Z,5.30
2019-04-24T13:08:46.432Z,4.30
2019-04-24T13:11:06.298Z,3.50
2019-04-24T13:13:51.686Z,4.73
2019-04-24T13:16:13.566Z,5.00
2019-04-24T13:18:58.770Z,5.13
2019-04-24T13:20:47.680Z,4.23
2019-04-24T13:23:34.569Z,3.67
2019-04-24T13:26:30.160Z,4.67
2019-04-24T13:29:15.384Z,4.83
2019-04-24T13:32:06.523Z,3.70
2019-04-24T13:34:39.172Z,3.70
2019-04-24T13:39:41.483Z,4.73
2019-04-24T13:42:07.674Z,4.00
2019-04-24T13:44:35.034Z,4.70
2019-04-24T13:47:06.053Z,4.70
2019-04-24T13:49:37.516Z,4.90
2019-04-24T13:53:05.750Z,4.63
2019-04-24T13:54:53.823Z,5.00
2019-04-24T13:57:11.166Z,4.97
2019-04-24T13:59:52.563Z,4.30
2019-04-24T14:02:09.555Z,4.60
2019-04-24T14:04:51.439Z,4.60
2019-04-24T14:17:28.967Z,4.33
2019-04-24T14:20:14.012Z,5.40
2019-04-24T14:22:19.968Z,5.77
2019-04-24T14:25:21.684Z,5.20
2019-04-24T14:27:47.537Z,5.27
2019-04-24T14:30:15.569Z,5.00
2019-04-24T14:32:47.759Z,5.70
2019-04-24T14:35:22.264Z,5.30
2019-04-24T14:37:55.057Z,5.57
2019-04-24T14:42:54.206Z,7.50
2019-04-24T14:47:45.350Z,7.37
2019-04-24T14:53:07.054Z,5.10
2019-04-24T14:55:31.444Z,5.47
2019-04-24T15:02:58.724Z,6.10
2019-04-24T15:08:17.474Z,5.40
2019-04-24T15:10:37.513Z,5.13
2019-04-24T15:18:17.565Z,6.07
2019-04-24T15:20:42.163Z,6.70
2019-04-24T15:23:54.559Z,6.53
2019-04-24T15:26:15.134Z,5.63
2019-04-24T15:28:42.718Z,5.43
2019-04-24T15:33:46.219Z,5.30
2019-04-24T15:43:36.584Z,5.57
2019-04-24T15:46:09.046Z,6.10
2019-04-24T15:48:47.355Z,5.07
2019-04-24T15:51:23.227Z,4.63
2019-04-24T15:53:19.643Z,6.60
2019-04-24T15:55:49.149Z,5.40
2019-04-24T15:58:27.711Z,6.43
2019-04-24T16:01:35.949Z,5.50
2019-04-24T16:06:12.276Z,6.33
2019-04-24T16:08:42.862Z,8.07
2019-04-24T16:11:13.418Z,5.70
2019-04-24T16:13:49.606Z,5.90
2019-04-24T16:21:45.180Z,5.60
2019-04-24T16:39:21.240Z,6.13
2019-04-24T16:44:45.063Z,5.47
2019-04-24T16:47:04.631Z,6.13
2019-04-24T16:49:53.747Z,7.07
2019-04-24T16:54:38.224Z,6.03
2019-04-24T16:57:09.704Z,6.17
2019-04-24T16:59:39.670Z,6.30
2019-04-24T17:02:05.262Z,5.77
2019-04-24T17:07:11.304Z,6.67
2019-04-24T17:14:48.215Z,5.60
2019-04-24T17:30:23.417Z,7.37
2019-04-24T17:35:26.808Z,7.10
2019-04-24T17:37:21.675Z,5.60
2019-04-24T17:39:55.598Z,5.93
2019-04-24T17:42:36.357Z,6.47
2019-04-24T17:45:22.035Z,8.47
2019-04-24T17:50:24.504Z,7.50
2019-04-24T17:53:07.900Z,7.40
2019-04-24T17:55:35.614Z,6.90
2019-04-24T17:57:51.662Z,6.50
2019-04-24T18:00:06.414Z,7.57
2019-04-24T18:02:35.809Z,6.67
2019-04-24T18:05:07.484Z,9.87
2019-04-24T18:07:37.098Z,7.13
2019-04-24T18:10:06.918Z,10.73
2019-04-24T18:12:36.356Z,9.73
2019-04-24T18:15:06.956Z,14.27
2019-04-24T18:17:36.358Z,8.43
2019-04-24T18:20:07.731Z,7.57
2019-04-24T18:22:40.178Z,7.70
2019-04-24T18:25:15.678Z,8.00
2019-04-24T18:27:46.972Z,8.40
2019-04-24T18:30:17.961Z,8.07
2019-04-24T18:32:47.273Z,6.97
2019-04-24T18:35:16.771Z,7.57
2019-04-24T18:37:46.015Z,8.30
2019-04-24T18:40:15.776Z,8.70
2019-04-24T18:42:45.231Z,7.00
2019-04-24T18:45:15.441Z,9.37
2019-04-24T18:47:45.882Z,7.83
2019-04-24T18:50:15.703Z,9.20
2019-04-24T18:52:50.005Z,7.83
2019-04-24T18:55:16.495Z,9.23
2019-04-24T18:57:45.989Z,7.80
2019-04-24T19:00:18.978Z,7.83
2019-04-24T19:02:46.783Z,9.20
2019-04-24T19:05:17.286Z,8.70
2019-04-24T19:07:46.835Z,9.00
2019-04-24T19:10:16.406Z,9.60
2019-04-24T19:12:45.957Z,8.77
2019-04-24T19:15:15.446Z,8.93
2019-04-24T19:17:54.365Z,7.80
2019-04-24T19:20:16.246Z,8.70
2019-04-24T19:22:45.709Z,9.20
2019-04-24T19:25:15.199Z,8.60
2019-04-24T19:27:44.700Z,7.90
2019-04-24T19:30:14.613Z,8.30
2019-04-24T19:32:44.121Z,7.70
2019-04-24T19:35:14.607Z,10.97
2019-04-24T19:37:44.191Z,16.03
2019-04-24T19:40:26.817Z,8.40
2019-04-24T19:42:44.866Z,12.80
2019-04-24T19:45:14.334Z,9.70
2019-04-24T19:47:43.818Z,9.53
2019-04-24T19:50:14.414Z,10.80
2019-04-24T19:52:44.145Z,8.83
2019-04-24T19:55:16.070Z,8.87
2019-04-24T19:57:44.944Z,12.60
2019-04-24T20:00:14.587Z,10.30
2019-04-24T20:02:44.151Z,8.43
2019-04-24T20:05:16.788Z,8.23
2019-04-24T20:07:44.883Z,8.03
2019-04-24T20:10:22.539Z,10.30
2019-04-24T20:12:52.133Z,9.80
2019-04-24T20:15:22.215Z,9.30
2019-04-24T20:17:53.549Z,11.93
2019-04-24T20:20:23.537Z,10.37
2019-04-24T20:22:53.526Z,9.20
2019-04-24T20:25:23.845Z,10.47
2019-04-24T20:27:53.489Z,12.33
2019-04-24T20:30:23.057Z,13.77
2019-04-24T20:32:52.777Z,11.20
2019-04-24T20:35:22.811Z,11.00
2019-04-24T20:37:52.479Z,12.23
2019-04-24T20:40:24.084Z,10.43
2019-04-24T20:42:53.174Z,10.60
2019-04-24T20:45:22.887Z,10.70
2019-04-24T20:47:52.488Z,10.30
2019-04-24T20:50:22.423Z,10.93
2019-04-24T20:52:52.964Z,9.73
2019-04-24T20:55:22.749Z,10.17
2019-04-24T20:57:53.159Z,10.03
2019-04-24T21:00:24.245Z,12.70
2019-04-24T21:02:53.827Z,12.30
2019-04-24T21:05:24.964Z,11.63
2019-04-24T21:07:58.773Z,10.97
2019-04-24T21:10:29.793Z,11.30
2019-04-24T21:13:01.148Z,10.83
2019-04-24T21:15:31.357Z,10.47
2019-04-24T21:18:01.811Z,12.13
2019-04-24T21:20:32.359Z,10.70
2019-04-24T21:23:02.554Z,12.97
2019-04-24T21:25:32.847Z,11.20
2019-04-24T21:28:02.526Z,12.33
2019-04-24T21:30:32.381Z,10.93
2019-04-24T21:33:02.010Z,11.80
2019-04-24T21:35:32.778Z,11.70
2019-04-24T21:38:02.538Z,11.50
2019-04-24T21:40:33.193Z,12.23
2019-04-24T21:43:02.819Z,11.70
2019-04-24T21:45:32.392Z,10.40
2019-04-24T21:48:03.299Z,10.23
2019-04-24T21:50:33.427Z,10.77
2019-04-24T21:53:03.170Z,11.00
2019-04-24T21:55:33.023Z,10.83
2019-04-24T21:58:04.500Z,10.47
2019-04-24T22:00:47.644Z,12.30
2019-04-24T22:03:38.573Z,11.43
2019-04-24T22:06:09.482Z,11.23
2019-04-24T22:08:38.954Z,10.37
2019-04-24T22:11:09.525Z,10.37
2019-04-24T22:13:38.945Z,10.20
2019-04-24T22:16:08.381Z,10.63
2019-04-24T22:18:38.255Z,11.57
2019-04-24T22:21:09.233Z,10.00
2019-04-24T22:23:43.602Z,9.90
2019-04-24T22:26:14.573Z,8.30
2019-04-24T22:28:44.042Z,20.03
2019-04-24T22:31:15.416Z,24.57
2019-04-24T22:33:49.227Z,16.30
2019-04-24T22:36:18.786Z,13.70
2019-04-24T22:38:51.335Z,12.50
2019-04-24T22:41:20.881Z,10.47
2019-04-24T22:43:52.019Z,11.30
2019-04-24T22:46:22.908Z,11.33
2019-04-24T22:48:53.392Z,10.27
2019-04-24T22:51:22.887Z,9.37
2019-04-24T22:53:52.312Z,11.00
2019-04-24T22:56:21.703Z,10.00
2019-04-24T22:58:51.325Z,9.77
2019-04-24T23:01:20.817Z,10.40
2019-04-24T23:03:50.580Z,10.53
2019-04-24T23:06:21.413Z,9.90
2019-04-24T23:08:52.062Z,10.43
2019-04-24T23:11:22.130Z,8.73
2019-04-24T23:13:51.947Z,9.33
2019-04-24T23:16:22.351Z,9.00
2019-04-24T23:18:51.997Z,9.53
2019-04-24T23:21:34.859Z,8.93
2019-04-24T23:24:10.322Z,8.63
2019-04-24T23:26:41.298Z,10.80
2019-04-24T23:29:14.905Z,9.53
2019-04-24T23:32:03.951Z,10.70
2019-04-24T23:34:35.204Z,10.40
2019-04-24T23:37:05.024Z,9.03
2019-04-24T23:39:34.646Z,9.27
2019-04-24T23:42:04.303Z,9.23
2019-04-24T23:44:34.674Z,8.60
2019-04-24T23:47:04.340Z,9.20
2019-04-24T23:49:33.722Z,10.80
2019-04-24T23:52:03.126Z,9.60
2019-04-24T23:54:32.664Z,10.60
2019-04-24T23:57:01.930Z,10.77
2019-04-24T23:59:31.406Z,10.03
